Edsbyn, Sweden
Current Conditions -  °F | °C
As of 10:50 AM on Sunday 21 Dec 2014 (Local Time) from ESSD Reporting Station
Clear Clear  
Wind Chill: 15°   Ceiling: Unl
Heat Index: 27°   Visibility: 6mi
Dew Point: 21°   Wind: 14mph
Humidity: 80%   Direction: 290°WNW
Pressure: 29.65"   Gusts: NA
Location:  61.38°N, 15.82°E
Report Text: ESSD 210950Z AUTO 29012KT 9999 NCD M03/M06 Q1004
Loading
Personal Weather Stations






























Interactive Weather Map New forecast layout! Learn more

10-Day Weather Forecast

Advertisements
Track Severe Weather on mobile